Time;durP1;ratioP1;P1;durP2;ratioP2;P2;SDS_P1;SDS_P2;PMS_P1;PMS_P2;Temp;Humidity;BMP_temperature;BMP_pressure;BME280_temperature;BME280_humidity;BME280_pressure;Samples;Min_cycle;Max_cycle;Signal;HPM_P1;HPM_P2
2023/08/05 00:01:24;;;;;;;3.95;2.97;;;16.80;70.60;;;;;;5032612;28;20044;-76
2023/08/05 00:03:50;;;;;;;3.70;2.70;;;16.80;70.70;;;;;;5016170;28;20041;-76
2023/08/05 00:06:15;;;;;;;3.40;2.60;;;16.80;70.80;;;;;;5016080;28;20111;-76
2023/08/05 00:08:41;;;;;;;3.70;2.30;;;16.80;70.80;;;;;;5016086;28;20042;-76
2023/08/05 00:11:07;;;;;;;3.58;2.08;;;16.70;70.90;;;;;;5015890;28;20042;-76
2023/08/05 00:13:34;;;;;;;3.90;2.63;;;16.70;71.10;;;;;;5015786;28;20485;-76
2023/08/05 00:16:05;;;;;;;4.45;2.67;;;16.80;71.40;;;;;;5016001;28;20075;-76
2023/08/05 00:18:30;;;;;;;4.15;2.50;;;16.70;71.60;;;;;;5015746;28;20045;-77
2023/08/05 00:20:56;;;;;;;4.43;2.65;;;16.70;71.60;;;;;;5015721;28;20045;-76
2023/08/05 00:23:22;;;;;;;3.55;2.67;;;16.70;71.80;;;;;;5015349;28;20086;-76
2023/08/05 00:25:47;;;;;;;3.33;2.40;;;16.70;71.50;;;;;;5015723;28;20588;-76
2023/08/05 00:28:13;;;;;;;4.03;2.58;;;16.70;71.60;;;;;;5032090;28;20052;-77
2023/08/05 00:30:39;;;;;;;3.40;2.30;;;16.70;71.70;;;;;;5015744;28;20041;-76
2023/08/05 00:33:04;;;;;;;2.97;1.83;;;16.70;71.70;;;;;;5032041;28;20047;-77
2023/08/05 00:35:30;;;;;;;3.08;1.90;;;16.70;71.90;;;;;;5032318;28;20049;-76
2023/08/05 00:37:56;;;;;;;2.95;1.80;;;16.70;72.00;;;;;;5015883;28;20132;-76
2023/08/05 00:40:23;;;;;;;4.18;2.17;;;16.70;72.00;;;;;;5015631;28;20045;-77
2023/08/05 00:42:48;;;;;;;5.65;3.03;;;16.70;72.00;;;;;;4999136;28;20103;-76
2023/08/05 00:45:14;;;;;;;4.13;2.30;;;16.70;71.80;;;;;;5015462;28;20053;-77
2023/08/05 00:47:41;;;;;;;3.50;2.47;;;16.70;71.60;;;;;;5015549;28;20040;-77
2023/08/05 00:50:08;;;;;;;3.47;2.70;;;16.60;71.50;;;;;;5015588;28;20095;-76
2023/08/05 00:52:36;;;;;;;3.50;1.92;;;16.60;71.50;;;;;;5031842;28;20092;-78
2023/08/05 00:55:01;;;;;;;4.32;2.50;;;16.60;71.50;;;;;;5015420;28;20041;-78
2023/08/05 00:57:27;;;;;;;4.53;2.95;;;16.60;71.60;;;;;;5015744;28;20099;-78
2023/08/05 00:59:53;;;;;;;6.60;3.28;;;16.60;71.50;;;;;;5031719;28;20562;-78
2023/08/05 01:02:19;;;;;;;7.05;3.78;;;16.60;71.40;;;;;;4999289;28;20038;-78
2023/08/05 01:04:44;;;;;;;5.20;2.78;;;16.50;71.30;;;;;;5031577;28;20390;-77
2023/08/05 01:07:12;;;;;;;5.93;2.60;;;16.50;71.20;;;;;;4998704;28;20168;-77
2023/08/05 01:09:37;;;;;;;5.53;2.90;;;16.40;71.40;;;;;;5015315;28;20040;-76
2023/08/05 01:12:04;;;;;;;4.38;2.72;;;16.40;71.80;;;;;;5015029;28;20409;-77
2023/08/05 01:14:31;;;;;;;4.45;2.85;;;16.40;71.90;;;;;;5015115;28;20520;-77
2023/08/05 01:16:57;;;;;;;5.50;3.08;;;16.40;72.00;;;;;;4998997;28;20048;-77
2023/08/05 01:19:25;;;;;;;4.82;3.35;;;16.40;72.10;;;;;;5014996;28;20045;-77
2023/08/05 01:22:26;;;;;;;4.20;3.17;;;16.30;72.10;;;;;;4998955;28;20044;-77
2023/08/05 01:24:59;;;;;;;3.65;2.67;;;16.30;72.10;;;;;;5034932;28;20053;-77
2023/08/05 01:27:26;;;;;;;4.05;2.42;;;16.30;72.40;;;;;;5035796;28;20037;-76
2023/08/05 01:29:53;;;;;;;3.63;2.47;;;16.30;72.50;;;;;;5019151;28;20049;-76
2023/08/05 01:32:20;;;;;;;4.93;2.50;;;16.30;72.60;;;;;;5018691;28;20048;-77
2023/08/05 01:34:47;;;;;;;3.97;2.45;;;16.30;72.70;;;;;;5018292;28;20050;-77
2023/08/05 01:37:12;;;;;;;4.57;2.17;;;16.30;72.70;;;;;;5018869;28;20045;-77
2023/08/05 01:39:38;;;;;;;4.85;2.75;;;16.30;72.70;;;;;;5002255;28;20481;-76
2023/08/05 01:42:04;;;;;;;4.70;2.30;;;16.30;72.70;;;;;;5035477;28;20045;-76
2023/08/05 01:44:30;;;;;;;4.18;2.55;;;16.30;72.70;;;;;;5018965;28;20112;-76
2023/08/05 01:46:55;;;;;;;4.38;2.45;;;16.30;72.70;;;;;;5002497;28;20485;-76
2023/08/05 01:49:21;;;;;;;3.20;2.30;;;16.30;72.70;;;;;;5018434;28;20489;-77
2023/08/05 01:51:47;;;;;;;4.25;2.40;;;16.30;72.70;;;;;;5002300;28;20049;-77
2023/08/05 01:54:13;;;;;;;6.88;3.33;;;16.30;72.70;;;;;;5001861;28;20400;-76
2023/08/05 01:56:38;;;;;;;4.72;2.97;;;16.30;72.50;;;;;;5035227;28;20135;-77
2023/08/05 01:59:04;;;;;;;5.72;3.00;;;16.30;72.00;;;;;;5017798;28;20481;-77
2023/08/05 02:01:43;;;;;;;4.43;2.42;;;16.20;71.70;;;;;;5018367;28;20048;-77
2023/08/05 02:04:09;;;;;;;5.13;2.75;;;16.20;71.60;;;;;;5034342;28;20052;-77
2023/08/05 02:06:34;;;;;;;3.30;2.55;;;16.20;71.70;;;;;;5034047;28;20041;-77
2023/08/05 02:09:00;;;;;;;3.85;2.42;;;16.20;71.80;;;;;;5001512;28;20128;-77
2023/08/05 02:11:26;;;;;;;3.42;2.38;;;16.10;71.90;;;;;;5018357;28;20045;-77
2023/08/05 02:13:51;;;;;;;4.30;2.63;;;16.10;72.10;;;;;;5018040;28;20047;-77
2023/08/05 02:16:17;;;;;;;3.83;2.53;;;16.10;72.20;;;;;;5018231;28;20033;-77
2023/08/05 02:18:43;;;;;;;3.83;2.70;;;16.10;72.40;;;;;;5017812;28;20041;-76
2023/08/05 02:21:08;;;;;;;3.67;2.53;;;16.10;72.90;;;;;;5018140;28;20132;-77
2023/08/05 02:23:34;;;;;;;3.92;2.75;;;16.10;72.50;;;;;;5034088;28;20426;-77
2023/08/05 02:26:02;;;;;;;3.45;2.40;;;16.00;72.50;;;;;;5001585;28;20551;-77
2023/08/05 02:28:27;;;;;;;5.85;3.38;;;16.00;72.60;;;;;;5018154;28;20121;-77
2023/08/05 02:30:53;;;;;;;6.28;3.38;;;16.00;72.60;;;;;;5034243;28;20073;-77
2023/08/05 02:33:19;;;;;;;4.47;2.30;;;16.00;72.50;;;;;;5017987;28;20041;-77
2023/08/05 02:35:46;;;;;;;3.60;2.38;;;16.00;72.50;;;;;;5000268;28;20034;-77
2023/08/05 02:38:12;;;;;;;3.65;2.13;;;16.00;72.60;;;;;;5034118;28;20081;-76
2023/08/05 02:40:38;;;;;;;3.13;2.53;;;16.00;72.70;;;;;;5017704;28;20100;-77
2023/08/05 02:43:03;;;;;;;5.82;3.42;;;16.00;72.80;;;;;;5017606;28;20033;-77
2023/08/05 02:45:29;;;;;;;5.25;2.83;;;16.00;72.80;;;;;;5018127;28;20080;-77
2023/08/05 02:47:55;;;;;;;3.63;2.50;;;16.00;72.90;;;;;;5017511;28;20404;-77
2023/08/05 02:50:20;;;;;;;3.97;2.38;;;16.00;73.00;;;;;;5017530;28;20096;-77
2023/08/05 02:52:46;;;;;;;4.13;2.85;;;16.00;73.10;;;;;;5033744;28;20120;-77
2023/08/05 02:55:12;;;;;;;5.47;3.53;;;16.00;73.20;;;;;;5017558;28;20346;-77
2023/08/05 02:57:37;;;;;;;5.78;3.78;;;16.00;73.20;;;;;;5017295;28;20551;-76
2023/08/05 03:00:04;;;;;;;5.72;3.55;;;16.00;73.30;;;;;;5017125;28;20095;-76
2023/08/05 03:02:30;;;;;;;4.45;3.20;;;15.90;73.30;;;;;;5033722;28;20037;-76
2023/08/05 03:04:55;;;;;;;6.95;3.42;;;15.90;73.40;;;;;;5017128;28;20099;-76
2023/08/05 03:07:21;;;;;;;6.00;4.20;;;15.90;73.60;;;;;;5017005;28;20045;-77
2023/08/05 03:09:47;;;;;;;5.55;3.13;;;15.90;73.70;;;;;;5033358;28;20048;-76
2023/08/05 03:12:13;;;;;;;4.35;2.78;;;15.80;73.70;;;;;;5033621;28;20481;-77
2023/08/05 03:14:39;;;;;;;6.38;3.58;;;15.80;73.80;;;;;;5033481;28;20037;-77
2023/08/05 03:17:05;;;;;;;4.90;3.58;;;15.80;74.00;;;;;;5017206;28;20095;-76
2023/08/05 03:19:30;;;;;;;3.72;2.45;;;15.80;74.00;;;;;;5033302;28;20508;-77
2023/08/05 03:21:56;;;;;;;5.80;3.15;;;15.70;74.10;;;;;;5000880;28;20124;-77
2023/08/05 03:24:22;;;;;;;3.95;2.97;;;15.70;74.30;;;;;;5016762;28;20049;-77
2023/08/05 03:26:47;;;;;;;4.78;2.88;;;15.70;74.50;;;;;;5017056;28;20063;-77
2023/08/05 03:29:13;;;;;;;5.00;2.75;;;15.70;74.60;;;;;;5033192;28;20552;-77
2023/08/05 03:31:38;;;;;;;3.92;2.72;;;15.80;74.70;;;;;;5016708;28;20046;-77
2023/08/05 03:34:04;;;;;;;5.38;3.10;;;15.80;74.80;;;;;;5000622;28;20051;-77
2023/08/05 03:36:31;;;;;;;4.95;2.90;;;15.80;74.80;;;;;;5033352;28;20049;-77
2023/08/05 03:38:57;;;;;;;4.43;3.63;;;15.80;74.80;;;;;;5016597;28;20053;-77
2023/08/05 03:41:22;;;;;;;4.68;2.92;;;15.80;74.70;;;;;;5033299;28;20047;-77
2023/08/05 03:43:48;;;;;;;5.45;2.80;;;15.80;74.60;;;;;;5016462;28;20485;-77
2023/08/05 03:46:14;;;;;;;3.65;2.50;;;15.80;74.50;;;;;;4999678;28;20038;-76
2023/08/05 03:48:40;;;;;;;3.40;2.38;;;15.80;74.50;;;;;;5016676;28;20034;-77
2023/08/05 03:51:05;;;;;;;5.45;3.47;;;15.90;74.60;;;;;;5032748;28;20083;-77
2023/08/05 03:53:31;;;;;;;5.68;3.45;;;15.90;74.60;;;;;;5016267;28;20075;-77
2023/08/05 03:55:57;;;;;;;6.40;4.00;;;15.90;74.50;;;;;;5016255;28;20045;-77
2023/08/05 03:58:23;;;;;;;5.40;3.90;;;15.90;74.50;;;;;;5016113;28;20045;-77
2023/08/05 04:00:49;;;;;;;6.10;3.90;;;15.90;74.60;;;;;;5016169;28;20060;-77
2023/08/05 04:03:15;;;;;;;6.30;3.90;;;15.80;74.60;;;;;;5016174;28;20073;-77
2023/08/05 04:05:40;;;;;;;7.63;4.30;;;15.80;74.60;;;;;;5032521;28;20114;-77
2023/08/05 04:08:06;;;;;;;5.78;3.90;;;15.80;74.60;;;;;;5016154;28;20099;-77
2023/08/05 04:10:34;;;;;;;7.47;4.03;;;15.80;74.50;;;;;;4999943;28;20049;-77
2023/08/05 04:13:01;;;;;;;8.70;4.75;;;15.70;74.50;;;;;;5016493;28;20060;-76
2023/08/05 04:15:28;;;;;;;6.10;3.63;;;15.70;74.70;;;;;;5032623;28;20064;-77
2023/08/05 04:17:59;;;;;;;6.00;4.18;;;15.60;74.80;;;;;;5015761;28;20049;-77
2023/08/05 04:20:25;;;;;;;5.40;3.28;;;15.60;75.10;;;;;;5032255;28;20124;-77
2023/08/05 04:22:51;;;;;;;4.82;3.20;;;15.50;75.30;;;;;;5032151;28;20044;-77
2023/08/05 04:25:16;;;;;;;5.30;3.22;;;15.50;75.50;;;;;;4999114;28;20136;-77
2023/08/05 04:27:42;;;;;;;4.30;3.10;;;15.40;75.70;;;;;;5032121;28;20076;-77
2023/08/05 04:30:08;;;;;;;6.15;3.10;;;15.40;75.80;;;;;;5016073;28;20052;-77
2023/08/05 04:32:34;;;;;;;6.43;4.13;;;15.40;75.90;;;;;;5016017;28;20049;-77
2023/08/05 04:35:00;;;;;;;6.10;4.30;;;15.40;76.10;;;;;;5015608;28;20500;-77
2023/08/05 04:37:27;;;;;;;5.68;3.75;;;15.40;76.20;;;;;;5032359;28;20103;-77
2023/08/05 04:39:53;;;;;;;4.57;3.50;;;15.30;76.10;;;;;;5015684;28;20057;-77
2023/08/05 04:42:19;;;;;;;6.75;3.78;;;15.30;76.30;;;;;;5031608;28;20037;-77
2023/08/05 04:44:45;;;;;;;6.75;4.32;;;15.30;76.50;;;;;;5015584;28;20090;-77
2023/08/05 04:47:12;;;;;;;7.90;7.10;;;15.30;76.70;;;;;;5031866;28;20120;-77
2023/08/05 04:49:40;;;;;;;7.30;4.47;;;15.40;76.90;;;;;;5015206;28;20052;-77
2023/08/05 04:52:06;;;;;;;7.32;5.05;;;15.40;76.90;;;;;;5032006;28;20045;-77
2023/08/05 04:54:39;;;;;;;4.95;3.95;;;15.40;76.90;;;;;;4999214;28;20041;-77
2023/08/05 04:57:06;;;;;;;5.17;3.40;;;15.40;77.00;;;;;;5015431;28;20045;-78
2023/08/05 04:59:32;;;;;;;7.63;4.43;;;15.40;77.00;;;;;;5014628;28;20049;-78
2023/08/05 05:01:58;;;;;;;6.70;4.60;;;15.40;77.30;;;;;;5031882;28;20488;-78
2023/08/05 05:04:24;;;;;;;6.55;4.32;;;15.50;77.40;;;;;;5015318;28;20038;-77
2023/08/05 05:06:50;;;;;;;7.72;4.22;;;15.40;77.40;;;;;;5031642;28;20045;-77
2023/08/05 05:09:15;;;;;;;4.50;3.40;;;15.50;77.50;;;;;;5031821;28;20113;-77
2023/08/05 05:11:41;;;;;;;5.35;3.25;;;15.50;77.50;;;;;;5031652;28;20392;-76
2023/08/05 05:14:07;;;;;;;5.90;4.43;;;15.50;77.50;;;;;;5031788;28;20045;-77
2023/08/05 05:16:32;;;;;;;7.13;4.45;;;15.60;77.50;;;;;;5015029;28;20048;-77
2023/08/05 05:18:58;;;;;;;5.72;4.30;;;15.60;77.60;;;;;;5015200;28;20072;-78
2023/08/05 05:21:24;;;;;;;5.97;4.50;;;15.70;77.50;;;;;;5031681;28;20045;-78
2023/08/05 05:23:50;;;;;;;6.28;4.35;;;15.70;77.50;;;;;;5031764;28;20041;-78
2023/08/05 05:26:16;;;;;;;5.63;3.95;;;15.70;77.40;;;;;;5015263;28;20406;-78
2023/08/05 05:28:41;;;;;;;6.72;3.58;;;15.70;77.30;;;;;;5015177;28;20041;-78
2023/08/05 05:31:07;;;;;;;6.32;3.60;;;15.70;77.20;;;;;;5031577;28;20073;-78
2023/08/05 05:33:33;;;;;;;5.68;3.70;;;15.70;77.20;;;;;;5031872;28;20037;-78
2023/08/05 05:35:58;;;;;;;6.80;4.25;;;15.70;77.30;;;;;;5014915;28;20532;-78
2023/08/05 05:38:24;;;;;;;5.90;3.90;;;15.70;77.20;;;;;;5015109;28;20045;-78
2023/08/05 05:40:53;;;;;;;5.75;3.83;;;15.80;77.10;;;;;;5014874;28;20516;-78
2023/08/05 05:43:19;;;;;;;7.38;3.97;;;15.70;77.20;;;;;;5031399;28;20124;-78
2023/08/05 05:45:46;;;;;;;6.00;4.13;;;15.80;77.30;;;;;;4998926;28;20087;-78
2023/08/05 05:48:12;;;;;;;9.45;4.68;;;15.80;77.40;;;;;;5015067;28;20048;-78
2023/08/05 05:50:41;;;;;;;6.90;4.55;;;15.80;77.50;;;;;;4998669;28;20128;-78
2023/08/05 05:53:08;;;;;;;6.78;4.28;;;15.90;77.60;;;;;;5015334;28;20095;-78
2023/08/05 05:55:34;;;;;;;7.78;4.65;;;15.90;77.60;;;;;;5014894;28;20060;-78
2023/08/05 05:57:59;;;;;;;7.15;4.93;;;15.90;77.70;;;;;;5014942;28;20041;-78
2023/08/05 06:00:25;;;;;;;4.65;3.47;;;16.00;77.80;;;;;;5014699;28;20089;-78
2023/08/05 06:02:51;;;;;;;6.65;4.55;;;16.00;77.80;;;;;;4998904;28;20045;-78
2023/08/05 06:05:17;;;;;;;6.70;4.00;;;16.00;77.90;;;;;;5031318;28;20494;-78
2023/08/05 06:07:44;;;;;;;5.25;3.75;;;16.10;77.70;;;;;;5014961;28;20548;-79
2023/08/05 06:10:09;;;;;;;7.22;3.80;;;16.10;77.70;;;;;;5017117;28;20092;-78
2023/08/05 06:12:37;;;;;;;5.30;3.83;;;16.20;77.60;;;;;;5018631;28;20081;-78
2023/08/05 06:15:07;;;;;;;6.70;3.60;;;16.20;77.70;;;;;;5035020;28;20120;-79
2023/08/05 06:17:32;;;;;;;7.03;3.40;;;16.30;77.60;;;;;;5019175;28;20405;-79
2023/08/05 06:19:58;;;;;;;5.90;3.47;;;16.40;77.00;;;;;;5034695;28;20052;-79
2023/08/05 06:22:24;;;;;;;5.20;3.03;;;16.50;76.50;;;;;;5035083;28;20041;-79
2023/08/05 06:24:50;;;;;;;6.68;3.85;;;16.50;76.40;;;;;;5018030;28;20064;-78
2023/08/05 06:27:17;;;;;;;4.97;2.90;;;16.60;76.30;;;;;;5018208;28;20076;-78
2023/08/05 06:29:43;;;;;;;7.25;3.38;;;16.60;75.80;;;;;;5034765;28;20041;-79
2023/08/05 06:32:08;;;;;;;6.55;3.40;;;16.70;75.80;;;;;;5018391;28;20504;-78
2023/08/05 06:34:34;;;;;;;6.15;3.90;;;16.70;75.50;;;;;;5017950;28;20448;-78
2023/08/05 06:37:00;;;;;;;6.97;3.38;;;16.70;75.50;;;;;;5018391;28;20054;-79
2023/08/05 06:39:25;;;;;;;8.20;3.55;;;16.80;75.50;;;;;;5001668;28;20445;-79
2023/08/05 06:41:51;;;;;;;5.72;3.40;;;16.80;75.60;;;;;;5034528;28;20037;-79
2023/08/05 06:44:17;;;;;;;6.00;3.65;;;16.80;75.40;;;;;;5034627;28;20094;-79
2023/08/05 06:46:42;;;;;;;6.90;3.70;;;16.90;75.40;;;;;;5034360;28;20480;-79
2023/08/05 06:49:09;;;;;;;7.50;3.60;;;16.90;75.40;;;;;;5034642;28;20042;-78
2023/08/05 06:51:35;;;;;;;5.95;3.80;;;16.90;75.30;;;;;;5034476;28;20049;-78
2023/08/05 06:54:01;;;;;;;8.32;4.05;;;17.00;75.30;;;;;;5017970;28;20385;-78
2023/08/05 06:56:26;;;;;;;6.35;3.85;;;17.00;75.10;;;;;;5034081;28;20485;-79
2023/08/05 06:58:53;;;;;;;5.93;3.28;;;17.10;75.20;;;;;;5017742;28;20105;-79
2023/08/05 07:01:18;;;;;;;4.95;3.05;;;17.10;74.90;;;;;;5033991;28;20059;-79
2023/08/05 07:03:44;;;;;;;8.00;3.88;;;17.20;74.90;;;;;;5034042;28;20121;-79
2023/08/05 07:06:10;;;;;;;5.53;3.20;;;17.20;74.50;;;;;;5017412;28;20091;-79
2023/08/05 07:08:36;;;;;;;4.78;3.13;;;17.30;74.10;;;;;;5034237;28;20037;-78
2023/08/05 07:11:02;;;;;;;6.93;3.72;;;17.30;74.00;;;;;;5034046;28;20536;-79
2023/08/05 07:13:28;;;;;;;8.45;3.15;;;17.40;74.10;;;;;;5033881;28;20033;-79
2023/08/05 07:16:01;;;;;;;5.88;3.38;;;17.50;73.80;;;;;;5017498;28;20049;-78
2023/08/05 07:18:28;;;;;;;6.87;3.83;;;17.50;73.00;;;;;;5017242;28;20050;-78
2023/08/05 07:20:53;;;;;;;5.68;3.15;;;17.60;72.90;;;;;;5032764;28;20046;-78
2023/08/05 07:23:19;;;;;;;5.82;3.58;;;17.70;73.10;;;;;;5033064;28;20041;-77
2023/08/05 07:25:45;;;;;;;5.78;3.60;;;17.80;73.10;;;;;;5016575;28;20152;-77
2023/08/05 07:28:11;;;;;;;5.13;3.45;;;17.90;73.10;;;;;;5033359;28;20536;-77
2023/08/05 07:30:37;;;;;;;5.57;3.15;;;18.00;72.70;;;;;;5033650;28;20052;-77
2023/08/05 07:33:04;;;;;;;5.40;3.20;;;18.00;72.00;;;;;;5033338;28;20044;-78
2023/08/05 07:35:32;;;;;;;6.00;3.45;;;18.10;71.40;;;;;;5017038;28;20049;-78
2023/08/05 07:37:58;;;;;;;6.10;3.03;;;18.10;71.30;;;;;;5033595;28;20077;-77
2023/08/05 07:40:24;;;;;;;5.78;3.08;;;18.20;70.80;;;;;;5016534;28;20468;-77
2023/08/05 07:42:50;;;;;;;7.05;3.55;;;18.20;70.60;;;;;;5033207;28;20037;-77
2023/08/05 07:45:18;;;;;;;5.85;3.10;;;18.20;70.30;;;;;;5033025;28;20211;-77
2023/08/05 07:47:45;;;;;;;5.13;3.05;;;18.20;70.10;;;;;;5033194;28;20090;-77
2023/08/05 07:50:13;;;;;;;5.15;3.03;;;18.20;70.50;;;;;;5033269;28;20045;-79
2023/08/05 07:52:38;;;;;;;4.90;3.47;;;18.20;70.60;;;;;;5016381;28;20037;-79
2023/08/05 07:55:04;;;;;;;4.32;2.83;;;18.20;70.30;;;;;;5032694;28;20171;-78
2023/08/05 07:57:31;;;;;;;7.15;3.03;;;18.20;70.30;;;;;;5016260;28;20041;-79
2023/08/05 07:59:57;;;;;;;4.68;3.13;;;18.20;70.50;;;;;;5028237;28;20060;-81
2023/08/05 08:02:24;;;;;;;4.82;3.00;;;18.20;70.60;;;;;;4992514;28;20038;-79
2023/08/05 08:04:54;;;;;;;7.03;3.17;;;18.20;70.40;;;;;;4995534;28;20069;-79
2023/08/05 08:07:21;;;;;;;7.03;3.20;;;18.20;70.20;;;;;;5011334;28;20127;-79
2023/08/05 08:09:47;;;;;;;4.43;2.65;;;18.10;70.60;;;;;;4996702;28;20523;-79
2023/08/05 08:12:13;;;;;;;7.60;3.30;;;18.10;70.80;;;;;;4980286;28;20041;-79
2023/08/05 08:14:38;;;;;;;6.35;2.85;;;18.10;70.30;;;;;;5012013;28;20073;-80
2023/08/05 08:17:04;;;;;;;5.72;3.10;;;18.10;70.30;;;;;;4996640;28;20136;-79
2023/08/05 08:19:30;;;;;;;3.60;2.55;;;18.10;70.00;;;;;;5012599;28;20046;-79
2023/08/05 08:21:56;;;;;;;5.78;2.92;;;18.10;69.90;;;;;;5012921;28;20042;-79
2023/08/05 08:24:21;;;;;;;5.05;2.88;;;18.10;70.00;;;;;;4964233;28;20382;-79
2023/08/05 08:26:47;;;;;;;5.53;2.60;;;18.10;69.90;;;;;;4980204;28;20133;-79
2023/08/05 08:29:13;;;;;;;4.60;2.60;;;18.20;70.00;;;;;;4996580;28;20092;-79
2023/08/05 08:31:39;;;;;;;6.05;3.00;;;18.10;69.60;;;;;;4980491;28;20073;-79
2023/08/05 08:34:04;;;;;;;5.95;2.78;;;18.10;69.20;;;;;;4996236;28;20085;-82
2023/08/05 08:36:30;;;;;;;5.25;2.70;;;18.20;69.40;;;;;;4996392;28;20069;-79
2023/08/05 08:38:56;;;;;;;3.72;2.35;;;18.20;69.60;;;;;;4980769;28;20137;-80
2023/08/05 08:41:23;;;;;;;5.53;2.70;;;18.20;69.90;;;;;;4995997;28;20481;-78
2023/08/05 08:43:50;;;;;;;6.72;2.85;;;18.40;69.50;;;;;;5012512;28;20092;-79
2023/08/05 08:46:17;;;;;;;5.22;2.67;;;18.40;69.50;;;;;;4979888;28;20129;-79
2023/08/05 08:48:44;;;;;;;5.82;2.60;;;18.60;69.90;;;;;;5012859;28;20037;-79
2023/08/05 08:51:11;;;;;;;5.88;3.10;;;18.70;68.80;;;;;;4996457;28;20077;-76
2023/08/05 08:53:37;;;;;;;4.10;2.70;;;18.80;67.80;;;;;;5012299;28;20046;-78
2023/08/05 08:56:03;;;;;;;4.45;2.20;;;18.90;67.80;;;;;;5012544;28;20041;-79
2023/08/05 08:58:29;;;;;;;4.95;2.00;;;19.00;68.30;;;;;;4996379;28;20535;-77
2023/08/05 09:00:55;;;;;;;4.80;2.22;;;19.10;68.60;;;;;;5012123;28;20569;-77
2023/08/05 09:03:27;;;;;;;5.88;2.30;;;19.20;68.30;;;;;;4979836;28;20057;-76
2023/08/05 09:05:58;;;;;;;4.88;2.08;;;19.40;66.90;;;;;;5012455;28;20552;-77
2023/08/05 09:08:24;;;;;;;4.72;2.40;;;19.50;67.50;;;;;;4996031;28;20382;-77
2023/08/05 09:10:50;;;;;;;4.22;2.20;;;19.70;66.90;;;;;;5013238;28;20515;-78
2023/08/05 09:13:17;;;;;;;5.97;2.33;;;19.80;65.70;;;;;;5032093;28;20045;-79
2023/08/05 09:15:43;;;;;;;3.88;2.30;;;19.80;65.60;;;;;;5032022;28;20041;-77
2023/08/05 09:18:09;;;;;;;5.32;2.53;;;20.00;66.60;;;;;;5015561;28;20045;-77
2023/08/05 09:20:36;;;;;;;4.35;2.28;;;20.10;66.30;;;;;;5014911;28;20362;-75
2023/08/05 09:23:07;;;;;;;4.57;2.35;;;20.10;65.20;;;;;;5015224;28;20081;-76
2023/08/05 09:25:37;;;;;;;3.88;2.25;;;20.10;63.60;;;;;;5031274;28;20060;-75
2023/08/05 09:28:05;;;;;;;4.30;2.40;;;20.20;63.80;;;;;;5031386;28;20034;-76
2023/08/05 09:30:32;;;;;;;4.30;2.15;;;20.20;64.60;;;;;;5031906;28;20037;-76
2023/08/05 09:32:58;;;;;;;5.47;2.83;;;20.40;65.10;;;;;;5015671;28;20148;-76
2023/08/05 09:35:25;;;;;;;3.97;2.72;;;20.50;64.40;;;;;;5030744;28;20538;-76
2023/08/05 09:37:52;;;;;;;4.53;2.72;;;20.70;63.30;;;;;;5014344;28;20041;-77
2023/08/05 09:40:24;;;;;;;6.53;3.15;;;20.80;62.40;;;;;;5030440;28;20417;-76
2023/08/05 09:42:52;;;;;;;5.50;2.92;;;20.90;61.60;;;;;;5030888;28;20042;-75
2023/08/05 09:45:20;;;;;;;7.30;3.10;;;20.90;62.00;;;;;;5017333;28;20045;-76
2023/08/05 09:47:48;;;;;;;5.28;2.78;;;21.00;62.90;;;;;;5035151;28;20042;-75
2023/08/05 09:50:15;;;;;;;5.25;2.88;;;21.00;62.00;;;;;;5034710;28;20045;-76
2023/08/05 09:52:42;;;;;;;5.75;3.10;;;21.00;62.60;;;;;;5018675;28;20392;-76
2023/08/05 09:55:13;;;;;;;7.13;3.08;;;21.00;62.70;;;;;;5018668;28;20522;-77
2023/08/05 09:57:40;;;;;;;5.10;3.10;;;21.10;61.80;;;;;;5035182;28;20048;-76
2023/08/05 10:00:13;;;;;;;5.65;3.78;;;21.00;61.60;;;;;;5018767;28;20501;-76
2023/08/05 10:02:44;;;;;;;5.50;3.08;;;21.00;61.60;;;;;;5019269;28;20045;-76
2023/08/05 10:05:10;;;;;;;7.22;4.30;;;21.00;62.20;;;;;;5034723;28;20037;-75
2023/08/05 10:07:41;;;;;;;6.75;3.40;;;21.00;61.90;;;;;;5035114;28;20384;-76
2023/08/05 10:10:16;;;;;;;7.43;4.03;;;21.00;61.50;;;;;;5034598;28;20119;-76
2023/08/05 10:12:52;;;;;;;6.18;3.67;;;21.00;61.70;;;;;;5034935;28;20111;-76
2023/08/05 10:15:41;;;;;;;4.40;3.22;;;21.00;63.30;;;;;;5034788;28;20451;-76
2023/08/05 10:18:09;;;;;;;5.75;3.78;;;21.00;63.60;;;;;;5033618;28;20053;-76
2023/08/05 10:20:36;;;;;;;5.50;3.28;;;21.10;63.50;;;;;;5018043;28;20041;-76
2023/08/05 10:23:09;;;;;;;4.72;3.03;;;21.20;62.60;;;;;;5034475;28;20049;-76
2023/08/05 10:25:57;;;;;;;4.68;3.35;;;21.20;61.20;;;;;;5018097;28;20552;-77
2023/08/05 10:28:23;;;;;;;5.25;3.13;;;21.30;60.60;;;;;;5018407;28;20390;-78
2023/08/05 10:30:51;;;;;;;5.22;3.13;;;21.40;60.60;;;;;;5017972;28;20044;-78
2023/08/05 10:33:18;;;;;;;5.65;3.53;;;21.40;59.90;;;;;;5018243;28;20141;-77
2023/08/05 10:35:44;;;;;;;4.72;3.60;;;21.40;60.10;;;;;;5034786;28;20042;-77
2023/08/05 10:38:16;;;;;;;8.88;3.70;;;21.40;60.00;;;;;;5034700;28;20045;-77
2023/08/05 10:41:03;;;;;;;10.02;5.15;;;21.40;60.10;;;;;;5017858;28;20091;-77
2023/08/05 10:43:31;;;;;;;9.55;4.85;;;21.40;60.00;;;;;;5002158;28;20097;-77
2023/08/05 10:45:58;;;;;;;11.02;5.70;;;21.30;60.70;;;;;;5034196;28;20091;-77
2023/08/05 10:48:34;;;;;;;6.93;4.40;;;21.30;61.20;;;;;;5001497;28;20041;-77
2023/08/05 10:51:13;;;;;;;5.47;4.07;;;21.20;60.10;;;;;;5017690;28;20045;-77
2023/08/05 10:53:43;;;;;;;5.90;4.18;;;21.20;60.90;;;;;;5034321;28;20064;-76
2023/08/05 10:56:12;;;;;;;6.55;4.55;;;21.10;61.80;;;;;;5016846;28;20041;-77
2023/08/05 10:58:50;;;;;;;6.70;4.07;;;21.00;61.80;;;;;;5017837;28;20397;-77
2023/08/05 11:01:17;;;;;;;8.02;5.07;;;21.10;62.00;;;;;;5017339;28;20045;-77
2023/08/05 11:03:46;;;;;;;6.70;3.70;;;21.10;62.80;;;;;;5017906;28;20124;-77
2023/08/05 11:06:23;;;;;;;7.95;4.10;;;21.20;62.60;;;;;;5033886;28;20044;-77
2023/08/05 11:08:48;;;;;;;5.28;4.13;;;21.20;61.40;;;;;;5017037;28;20485;-77
2023/08/05 11:11:14;;;;;;;7.45;5.00;;;21.20;61.10;;;;;;5017390;28;20099;-78
2023/08/05 11:13:43;;;;;;;9.85;4.82;;;21.20;61.70;;;;;;5033574;28;20046;-77
2023/08/05 11:16:16;;;;;;;5.53;4.13;;;21.30;62.20;;;;;;5033710;28;20088;-85
2023/08/05 11:18:45;;;;;;;5.63;4.30;;;21.40;62.60;;;;;;5016604;28;20076;-76
2023/08/05 11:21:13;;;;;;;6.32;4.28;;;21.40;61.60;;;;;;5031602;28;20045;-76
2023/08/05 11:23:44;;;;;;;5.68;4.70;;;21.50;61.30;;;;;;5032424;28;20389;-76
2023/08/05 11:26:10;;;;;;;7.72;5.07;;;21.50;61.00;;;;;;5032873;28;20041;-76
2023/08/05 11:28:44;;;;;;;6.97;5.22;;;21.50;61.30;;;;;;5016939;28;20037;-76
2023/08/05 11:31:22;;;;;;;7.65;4.93;;;21.50;60.80;;;;;;5033298;28;20045;-76
2023/08/05 11:33:49;;;;;;;8.40;5.38;;;21.50;60.00;;;;;;5033191;28;20489;-76
2023/08/05 11:36:14;;;;;;;5.30;4.80;;;21.50;60.30;;;;;;5016668;28;20044;-76
2023/08/05 11:38:40;;;;;;;6.53;5.45;;;21.50;60.60;;;;;;5016905;28;20049;-77
2023/08/05 11:41:06;;;;;;;6.00;4.85;;;21.40;61.60;;;;;;5016769;28;20053;-78
2023/08/05 11:43:32;;;;;;;7.03;5.60;;;21.40;63.10;;;;;;5033322;28;20038;-77
2023/08/05 11:45:58;;;;;;;5.93;5.32;;;21.40;64.40;;;;;;5033220;28;20110;-78
2023/08/05 11:48:25;;;;;;;5.90;5.20;;;21.30;64.00;;;;;;5033331;28;20037;-78
2023/08/05 11:51:01;;;;;;;5.70;4.68;;;21.20;63.80;;;;;;5033294;28;20051;-77
2023/08/05 11:53:28;;;;;;;5.32;4.35;;;21.20;64.50;;;;;;5032975;28;20041;-78
2023/08/05 11:55:55;;;;;;;6.60;4.00;;;21.20;64.50;;;;;;5032892;28;20045;-77
2023/08/05 11:58:23;;;;;;;5.70;4.15;;;21.10;62.60;;;;;;5032844;28;20071;-77
2023/08/05 12:00:53;;;;;;;6.88;3.67;;;21.00;61.90;;;;;;5016439;28;20378;-78
2023/08/05 12:03:19;;;;;;;6.07;3.70;;;21.00;62.70;;;;;;5032712;28;20566;-78
2023/08/05 12:05:46;;;;;;;5.38;3.15;;;21.00;62.70;;;;;;5032962;28;20033;-78
2023/08/05 12:08:12;;;;;;;3.55;2.88;;;21.00;62.80;;;;;;5032470;28;20095;-77
2023/08/05 12:10:39;;;;;;;5.53;2.78;;;21.00;62.80;;;;;;5032736;28;20041;-77
2023/08/05 12:13:09;;;;;;;5.07;3.47;;;21.00;63.20;;;;;;5033010;28;20064;-77
2023/08/05 12:15:35;;;;;;;6.32;3.50;;;21.00;62.30;;;;;;5032918;28;20068;-77
2023/08/05 12:18:06;;;;;;;2.90;2.50;;;21.00;62.20;;;;;;4999792;28;20508;-78
2023/08/05 12:20:31;;;;;;;3.08;2.00;;;21.10;61.30;;;;;;5032489;28;20099;-76
2023/08/05 12:23:01;;;;;;;4.70;1.90;;;21.20;62.50;;;;;;5016120;28;20500;-76
2023/08/05 12:25:28;;;;;;;3.72;2.08;;;21.30;60.80;;;;;;5015657;28;20053;-76
2023/08/05 12:27:55;;;;;;;2.70;1.80;;;21.30;59.10;;;;;;5032451;28;20053;-78
2023/08/05 12:30:21;;;;;;;4.75;1.90;;;21.40;59.40;;;;;;5032397;28;20052;-78
2023/08/05 12:32:47;;;;;;;5.53;2.50;;;21.40;59.80;;;;;;5032258;28;20045;-78
2023/08/05 12:35:13;;;;;;;2.97;1.70;;;21.50;59.40;;;;;;5031887;28;20033;-78
2023/08/05 12:37:41;;;;;;;4.95;2.35;;;21.60;59.10;;;;;;5031647;28;20124;-77
2023/08/05 12:40:11;;;;;;;4.57;2.33;;;21.60;59.10;;;;;;5031645;28;20065;-77
2023/08/05 12:42:37;;;;;;;3.58;2.20;;;21.70;59.00;;;;;;5015490;28;20073;-77
2023/08/05 12:45:04;;;;;;;4.00;2.08;;;21.70;58.60;;;;;;5015412;28;20476;-77
2023/08/05 12:47:30;;;;;;;4.32;2.05;;;21.80;58.10;;;;;;5015084;28;20507;-77